Flight Track Log - Related Links

Times and Time Zones

All times are in EDT time to prevent confusion due to time zone crossing. See the LOF3376 flight status page for this flight to view local times or setup timezone preferences in your user account.

Time Position Orientation Groundspeed Altitude Reporting Facility
EDT Latitude Longitude Course Direction KTS MPH feet Rate Location/Type
Tue 06:42:58 AM 38.7167 -90.3000 North 200 230 2,800  Level Gateway (St. Louis) TRACON
Tue 06:43:29 AM 38.7128 -90.2606 97° East 208 239 3,500 2,967 Climbing Kansas City Center
Tue 06:44:29 AM 38.7475 -90.2011 53° Northeast 235 270 7,300 2,826 Climbing Kansas City Center
Tue 06:45:00 AM 38.9519 -90.2000 North  Level FlightAware Approximate
Tue 06:45:30 AM 38.8186 -90.2106 354° North 261 300 9,200  Level Kansas City Center
Tue 06:46:00 AM 39.0383 -90.2022 356° North  Level FlightAware Approximate
Tue 06:46:30 AM 38.9042 -90.2117 359° North 301 346 11,400  Level Kansas City Center
Tue 06:47:00 AM 39.1245 -90.2108 356° North  Level FlightAware Approximate
Tue 06:47:30 AM 38.9994 -90.2125 360° North 338 389 13,200  Level Kansas City Center
Tue 06:48:00 AM 39.2201 -90.2167 North  Level FlightAware Approximate
Tue 06:48:31 AM 39.0967 -90.2147 359° North 351 404 15,500  Level Kansas City Center
Tue 06:49:31 AM 39.1947 -90.2156 360° North 353 406 17,700 2,300 Climbing Kansas City Center
Tue 06:50:31 AM 39.2917 -90.2178 359° North 351 404 20,100 1,650 Climbing Kansas City Center
Tue 06:51:31 AM 39.3925 -90.2172 360° North 359 413 21,000 446 Climbing Kansas City Center
Tue 06:52:32 AM 39.5056 -90.1897 11° North 403 464 21,000  Level Kansas City Center
Tue 06:53:32 AM 39.6253 -90.1622 10° North 430 495 21,000  Level Kansas City Center
Tue 06:54:32 AM 39.7503 -90.1331 10° North 436 502 21,000  Level Kansas City Center
Tue 06:55:32 AM 39.8686 -90.1053 10° North 434 499 21,000  Level Kansas City Center
Tue 06:56:33 AM 39.9744 -90.0286 29° Northeast 441 507 21,000  Level Kansas City Center
Tue 06:57:33 AM 40.0772 -89.9431 32° Northeast 440 506 21,000  Level Kansas City Center
Tue 06:58:33 AM 40.1803 -89.8572 32° Northeast 440 506 21,000  Level Kansas City Center
Tue 06:59:40 AM 40.3003 -89.7550 33° Northeast 435 501 21,000  Level Chicago Center
Tue 07:00:40 AM 40.4031 -89.6686 33° Northeast 441 507 21,000  Level Chicago Center
Tue 07:01:41 AM 40.5039 -89.5839 33° Northeast 438 504 21,000  Level Chicago Center
Tue 07:02:41 AM 40.6061 -89.4947 34° Northeast 443 510 21,000  Level Chicago Center
Tue 07:03:42 AM 40.7086 -89.4083 33° Northeast 442 509 21,000  Level Chicago Center
Tue 07:04:43 AM 40.8108 -89.3206 33° Northeast 442 509 21,000  Level Chicago Center
Tue 07:05:43 AM 40.9128 -89.2328 33° Northeast 441 507 21,000  Level Chicago Center
Tue 07:06:44 AM 41.0172 -89.1433 33° Northeast 441 507 21,000 -492 Level Chicago Center
Tue 07:07:45 AM 41.1178 -89.0550 33° Northeast 437 503 20,000 -1,636 Descending Chicago Center
Tue 07:08:45 AM 41.2183 -88.9672 33° Northeast 436 502 17,700 -2,182 Descending Chicago Center
Tue 07:09:46 AM 41.3128 -88.8817 34° Northeast 422 486 15,600 -2,115 Descending Chicago Center
Tue 07:10:47 AM 41.4067 -88.8008 33° Northeast 408 470 13,400 -2,164 Descending Chicago Center
Tue 07:11:48 AM 41.4981 -88.7183 34° Northeast 400 460 11,200 -1,180 Descending Chicago Center
Tue 07:12:49 AM 41.5656 -88.5686 59° Northeast 395 455 11,000 -98 Descending Chicago Center
Tue 07:13:50 AM 41.6211 -88.4414 60° Northeast 397 457 11,000  Level Chicago Center
Tue 07:14:51 AM 41.6883 -88.3281 52° Northeast 392 451 11,000  Level Chicago Center
Tue 07:15:52 AM 41.7547 -88.2147 52° Northeast 387 445 11,000 -492 Level Chicago Center
Tue 07:16:53 AM 41.8108 -88.1217 51° Northeast 328 377 10,000 -1,230 Descending Chicago Center
Tue 07:17:54 AM 41.8922 -88.1050 North 304 350 8,500 -1,537 Descending Chicago Center
Tue 07:18:15 AM 41.9333 -88.1000 North 306 352 7,900 -1,103 Descending Chicago TRACON
Tue 07:19:21 AM 42.0000 -88.1167 349° North 264 304 6,900 -832 Descending Chicago TRACON
Tue 07:19:56 AM 42.0289 -88.1447 324° Northwest 237 273 6,500 -1,063 Descending Chicago Center
Tue 07:20:57 AM 42.0717 -88.2008 316° Northwest 216 249 5,200 -984 Descending Chicago Center
Tue 07:21:58 AM 42.1269 -88.1778 17° North 239 275 4,500 -590 Descending Chicago Center
Tue 07:22:59 AM 42.1342 -88.1028 83° East 242 278 4,000 -876 Descending Chicago Center
Tue 07:23:27 AM 42.1000 -88.0667 142° Southeast 223 257 3,200 -1,714 Descending Chicago TRACON

Login

Don't have an account? Register now (free) for customized features, flight alerts, and more!